CYTL

Big Trout Lake Airport

Big Trout Lake, Ontario, Canada
METAR CYTL 181500Z AUTO VRB02KT 9SM -SN OVC009 M15/M17 A2980 RMK SLP114
Observed Flight Rules
Jan-18 @ 15:00 UTC (23 minutes ago) Instrument Flight Rules
Wind Visibility Clouds Conditions
Variable at 2 knots 9 miles
  • Overcast at 900' AGL
  • Light Snow
Temperatures Readings
Current -15°C / 5°F
Dewpoint -17°C / 1°F
Humidity 85%
Altimeter 29.8" Hg
Pressure 1011.4 hPa
Elevation 224
METAR CYTL 181500Z AUTO VRB02KT 9SM -SN OVC009 M15/M17 A2980 RMK SLP114
Observed Flight Rules
Jan-18 @ 15:00 UTC
(23 minutes ago)
IFR
Wind Visibility
Variable at 2 knots 9 miles
Clouds
  • Overcast at 900' AGL
Conditions
  • Light Snow
Temperature Dewpoint
-15°C / 5°F -17°C / 1°F
Humidity Altimeter Pressure
85% 29.8" Hg 1011.4 hPa